createdAt,value
2018-10-07T00:00:25.575Z,63.41
2018-10-07T00:02:53.608Z,63.04
2018-10-07T00:05:21.259Z,63.21
2018-10-07T00:07:48.949Z,63.31
2018-10-07T00:10:16.624Z,63.44
2018-10-07T00:12:45.287Z,63.07
2018-10-07T00:15:12.933Z,63.42
2018-10-07T00:17:40.594Z,63.28
2018-10-07T00:20:08.250Z,62.79
2018-10-07T00:22:37.117Z,63.16
2018-10-07T00:25:04.752Z,62.87
2018-10-07T00:27:32.405Z,63.72
2018-10-07T00:30:01.966Z,63.48
2018-10-07T00:32:29.648Z,63.58
2018-10-07T00:34:57.303Z,63.38
2018-10-07T00:37:24.917Z,63.66
2018-10-07T00:39:53.074Z,63.72
2018-10-07T00:42:20.713Z,63.88
2018-10-07T00:44:48.308Z,63.56
2018-10-07T00:47:15.936Z,63.95
2018-10-07T00:49:43.864Z,63.99
2018-10-07T00:52:11.501Z,63.62
2018-10-07T00:54:39.121Z,64.11
2018-10-07T00:57:07.689Z,64.29
2018-10-07T00:59:37.515Z,64.08
2018-10-07T01:02:05.186Z,63.79
2018-10-07T01:04:32.820Z,64.21
2018-10-07T01:07:00.789Z,64.23
2018-10-07T01:09:28.433Z,64.17
2018-10-07T01:11:56.280Z,63.59
2018-10-07T01:14:26.021Z,63.27
2018-10-07T01:16:53.692Z,63.34
2018-10-07T01:19:21.325Z,63.35
2018-10-07T01:21:50.093Z,63.60
2018-10-07T01:24:17.701Z,63.59
2018-10-07T01:26:45.339Z,63.35
2018-10-07T01:29:13.821Z,62.92
2018-10-07T01:31:41.408Z,62.83
2018-10-07T01:34:09.069Z,63.07
2018-10-07T01:36:36.695Z,62.90
2018-10-07T01:39:04.844Z,62.88
2018-10-07T01:41:32.479Z,62.55
2018-10-07T01:44:00.155Z,62.70
2018-10-07T01:46:27.823Z,63.00
2018-10-07T01:48:55.802Z,62.62
2018-10-07T01:51:23.434Z,62.65
2018-10-07T01:53:51.073Z,62.68
2018-10-07T01:56:19.141Z,62.46
2018-10-07T01:58:46.734Z,62.76
2018-10-07T02:01:14.391Z,62.58
2018-10-07T02:03:42.295Z,62.67
2018-10-07T02:06:11.560Z,62.15
2018-10-07T02:08:39.194Z,62.97
2018-10-07T02:11:07.705Z,62.70
2018-10-07T02:13:35.334Z,62.69
2018-10-07T02:16:02.959Z,62.25
2018-10-07T02:18:30.574Z,62.53
2018-10-07T02:20:58.213Z,63.05
2018-10-07T02:23:26.329Z,62.54
2018-10-07T02:25:54.673Z,63.15
2018-10-07T02:28:22.285Z,62.63
2018-10-07T02:30:50.298Z,62.68
2018-10-07T02:33:20.102Z,62.44
2018-10-07T02:35:47.743Z,62.63
2018-10-07T02:38:15.369Z,62.43
2018-10-07T02:40:43.660Z,63.09
2018-10-07T02:43:11.379Z,63.32
2018-10-07T02:45:40.040Z,63.57
2018-10-07T02:48:07.629Z,63.40
2018-10-07T02:50:35.658Z,63.09
2018-10-07T02:53:03.405Z,62.75
2018-10-07T02:55:31.052Z,62.97
2018-10-07T02:57:59.061Z,63.08
2018-10-07T03:00:26.710Z,63.19
2018-10-07T03:02:54.389Z,62.77
2018-10-07T03:05:22.026Z,62.82
2018-10-07T03:07:49.934Z,63.24
2018-10-07T03:10:18.000Z,62.70
2018-10-07T03:12:45.621Z,63.55
2018-10-07T03:15:13.484Z,63.21
2018-10-07T03:17:41.157Z,63.15
2018-10-07T03:20:09.293Z,63.21
2018-10-07T03:22:39.950Z,62.85
2018-10-07T03:25:07.607Z,62.92
2018-10-07T03:27:35.616Z,63.23
2018-10-07T03:30:03.271Z,63.17
2018-10-07T03:32:30.951Z,63.06
2018-10-07T03:34:58.598Z,63.04
2018-10-07T03:37:26.576Z,63.42
2018-10-07T03:39:54.205Z,63.89
2018-10-07T03:42:21.852Z,63.59
2018-10-07T03:44:49.767Z,63.86
2018-10-07T03:47:17.435Z,63.65
2018-10-07T03:49:45.100Z,63.88
2018-10-07T03:52:12.772Z,63.95
2018-10-07T03:54:40.821Z,64.04
2018-10-07T03:57:08.509Z,64.09
2018-10-07T03:59:36.193Z,64.04
2018-10-07T04:02:04.230Z,64.69
2018-10-07T04:04:31.912Z,65.04
2018-10-07T04:06:59.553Z,64.38
2018-10-07T04:09:27.199Z,64.45
2018-10-07T04:11:55.278Z,64.57
2018-10-07T04:14:22.903Z,65.46
2018-10-07T04:16:50.545Z,65.73
2018-10-07T04:19:18.477Z,65.93
2018-10-07T04:21:51.262Z,66.65
2018-10-07T04:24:19.722Z,66.59
2018-10-07T04:26:47.398Z,66.71
2018-10-07T04:29:15.666Z,67.68
2018-10-07T04:31:43.327Z,67.48
2018-10-07T04:34:10.955Z,68.13
2018-10-07T04:36:38.648Z,68.31
2018-10-07T04:39:06.707Z,67.75
2018-10-07T04:41:34.338Z,68.73
2018-10-07T04:44:02.005Z,68.26
2018-10-07T04:46:29.717Z,69.32
2018-10-07T04:48:57.744Z,68.82
2018-10-07T04:51:25.381Z,69.42
2018-10-07T04:53:53.109Z,69.34
2018-10-07T04:56:20.770Z,69.43
2018-10-07T04:58:48.369Z,69.77
2018-10-07T05:01:16.005Z,69.81
2018-10-07T05:03:43.677Z,70.15
2018-10-07T05:06:11.608Z,69.47
2018-10-07T05:08:39.196Z,70.04
2018-10-07T05:11:06.956Z,70.18
2018-10-07T05:13:34.621Z,70.48
2018-10-07T05:16:02.727Z,70.92
2018-10-07T05:18:30.439Z,71.09
2018-10-07T05:20:58.155Z,70.92
2018-10-07T05:23:26.080Z,71.25
2018-10-07T05:25:53.725Z,71.41
2018-10-07T05:28:21.381Z,70.92
2018-10-07T05:30:50.850Z,71.42
2018-10-07T05:33:18.518Z,70.92
2018-10-07T05:35:46.162Z,70.78
2018-10-07T05:38:13.838Z,70.84
2018-10-07T05:40:41.924Z,71.36
2018-10-07T05:43:09.525Z,71.70
2018-10-07T05:45:37.131Z,71.78
2018-10-07T05:48:05.173Z,71.30
2018-10-07T05:50:32.829Z,71.62
2018-10-07T05:53:00.460Z,71.71
2018-10-07T05:55:28.221Z,71.34
2018-10-07T05:57:57.513Z,71.68
2018-10-07T06:00:25.208Z,71.46
2018-10-07T06:02:52.868Z,72.01
2018-10-07T06:05:21.185Z,71.98
2018-10-07T06:07:49.080Z,72.33
2018-10-07T06:10:16.735Z,71.48
2018-10-07T06:12:44.406Z,71.95
2018-10-07T06:15:12.492Z,72.21
2018-10-07T06:17:40.141Z,71.28
2018-10-07T06:20:07.771Z,71.21
2018-10-07T06:22:35.376Z,71.56
2018-10-07T06:25:03.332Z,71.95
2018-10-07T06:27:30.988Z,71.35
2018-10-07T06:29:58.680Z,71.16
2018-10-07T06:32:26.341Z,71.58
2018-10-07T06:34:53.981Z,71.10
2018-10-07T06:37:21.610Z,71.71
2018-10-07T06:39:49.213Z,71.37
2018-10-07T06:42:16.842Z,71.06
2018-10-07T06:44:44.829Z,71.23
2018-10-07T06:47:12.427Z,71.73
2018-10-07T06:49:40.067Z,71.27
2018-10-07T06:52:08.048Z,71.26
2018-10-07T06:54:35.648Z,70.95
2018-10-07T06:57:04.705Z,71.62
2018-10-07T06:59:32.359Z,70.83
2018-10-07T07:02:00.016Z,70.76
2018-10-07T07:04:27.672Z,71.11
2018-10-07T07:06:55.628Z,70.77
2018-10-07T07:09:23.328Z,70.83
2018-10-07T07:11:50.969Z,70.26
2018-10-07T07:14:19.029Z,70.81
2018-10-07T07:16:46.623Z,70.57
2018-10-07T07:19:14.262Z,70.57
2018-10-07T07:21:42.206Z,69.89
2018-10-07T07:24:10.714Z,70.18
2018-10-07T07:26:38.391Z,70.28
2018-10-07T07:29:06.428Z,70.17
2018-10-07T07:31:34.184Z,70.10
2018-10-07T07:34:02.457Z,69.25
2018-10-07T07:36:31.308Z,69.46
2018-10-07T07:38:58.943Z,69.73
2018-10-07T07:41:26.594Z,69.03
2018-10-07T07:43:54.680Z,69.40
2018-10-07T07:46:22.279Z,69.47
2018-10-07T07:48:49.933Z,69.75
2018-10-07T07:51:18.935Z,69.75
2018-10-07T07:53:47.246Z,69.08
2018-10-07T07:56:14.897Z,68.88
2018-10-07T07:58:43.668Z,68.45
2018-10-07T08:01:14.085Z,68.62
2018-10-07T08:03:41.734Z,68.39
2018-10-07T08:06:09.777Z,68.35
2018-10-07T08:08:37.417Z,68.13
2018-10-07T08:11:05.094Z,67.55
2018-10-07T08:13:33.198Z,67.83
2018-10-07T08:16:01.900Z,67.48
2018-10-07T08:18:30.436Z,67.23
2018-10-07T08:21:00.349Z,66.70
2018-10-07T08:23:28.163Z,66.76
2018-10-07T08:25:55.776Z,67.02
2018-10-07T08:28:23.829Z,66.49
2018-10-07T08:30:51.481Z,66.63
2018-10-07T08:33:19.265Z,66.44
2018-10-07T08:35:50.047Z,66.75
2018-10-07T08:38:17.766Z,67.04
2018-10-07T08:40:45.419Z,66.54
2018-10-07T08:43:13.504Z,66.53
2018-10-07T08:45:41.137Z,66.38
2018-10-07T08:48:08.833Z,65.61
2018-10-07T08:50:36.843Z,65.00
2018-10-07T08:53:04.616Z,64.89
2018-10-07T08:55:32.239Z,65.16
2018-10-07T08:58:00.292Z,65.55
2018-10-07T09:00:27.952Z,65.23
2018-10-07T09:02:57.384Z,65.63
2018-10-07T09:05:25.582Z,65.47
2018-10-07T09:07:54.425Z,65.40
2018-10-07T09:10:22.077Z,64.74
2018-10-07T09:12:50.120Z,63.83
2018-10-07T09:15:18.429Z,63.61
2018-10-07T09:17:47.114Z,62.97
2018-10-07T09:20:15.221Z,63.12
2018-10-07T09:22:43.580Z,62.62
2018-10-07T09:25:11.245Z,62.27
2018-10-07T09:27:39.382Z,61.53
2018-10-07T09:30:08.008Z,61.57
2018-10-07T09:32:35.776Z,61.58
2018-10-07T09:35:04.257Z,61.18
2018-10-07T09:37:31.924Z,61.32
2018-10-07T09:39:59.529Z,60.73
2018-10-07T09:42:28.453Z,59.88
2018-10-07T09:44:56.086Z,58.69
2018-10-07T09:47:23.747Z,56.69
2018-10-07T09:49:52.257Z,55.19
2018-10-07T09:52:20.644Z,53.69
2018-10-07T09:54:48.501Z,53.30
2018-10-07T09:57:16.421Z,53.15
2018-10-07T09:59:44.859Z,51.45
2018-10-07T10:02:12.480Z,50.22
2018-10-07T10:04:41.559Z,48.67
2018-10-07T10:07:10.326Z,47.69
2018-10-07T10:09:38.640Z,47.64
2018-10-07T10:12:07.523Z,46.55
2018-10-07T10:14:35.230Z,46.11
2018-10-07T10:17:05.810Z,45.40
2018-10-07T10:19:33.907Z,44.37
2018-10-07T10:22:02.537Z,44.62
2018-10-07T10:24:31.317Z,45.10
2018-10-07T10:26:59.224Z,45.35
2018-10-07T10:29:27.914Z,44.93
2018-10-07T10:31:56.337Z,46.90
2018-10-07T10:34:24.236Z,48.46
2018-10-07T10:36:52.984Z,47.93
2018-10-07T10:39:20.747Z,48.14
2018-10-07T10:41:49.411Z,47.77
2018-10-07T10:44:17.584Z,47.74
2018-10-07T10:46:45.225Z,47.50
2018-10-07T10:49:13.588Z,46.88
2018-10-07T10:51:42.236Z,46.54
2018-10-07T10:54:09.862Z,46.15
2018-10-07T10:56:37.985Z,45.77
2018-10-07T11:01:39.672Z,45.30
2018-10-07T11:04:08.260Z,45.05
2018-10-07T11:06:36.799Z,43.77
2018-10-07T11:09:06.637Z,43.17
2018-10-07T11:11:34.770Z,42.60
2018-10-07T11:14:02.465Z,42.33
2018-10-07T11:16:30.297Z,42.75
2018-10-07T11:18:58.716Z,43.10
2018-10-07T11:21:27.180Z,42.77
2018-10-07T11:23:56.680Z,43.40
2018-10-07T11:26:24.714Z,43.73
2018-10-07T11:28:52.385Z,42.77
2018-10-07T11:31:20.792Z,42.07
2018-10-07T11:33:48.429Z,42.46
2018-10-07T11:36:16.149Z,42.48
2018-10-07T11:38:44.261Z,41.81
2018-10-07T11:41:13.517Z,42.93
2018-10-07T11:43:41.335Z,43.44
2018-10-07T11:46:10.394Z,43.83
2018-10-07T11:48:38.840Z,44.68
2018-10-07T11:51:06.739Z,43.72
2018-10-07T11:53:35.264Z,42.83
2018-10-07T11:56:02.986Z,42.44
2018-10-07T11:58:32.264Z,40.67
2018-10-07T12:01:01.734Z,40.06
2018-10-07T12:03:29.897Z,38.85
2018-10-07T12:06:00.280Z,38.02
2018-10-07T12:08:28.448Z,38.60
2018-10-07T12:10:56.473Z,39.30
2018-10-07T12:13:25.819Z,39.51
2018-10-07T12:15:54.491Z,40.46
2018-10-07T12:18:23.236Z,40.02
2018-10-07T12:20:51.350Z,40.51
2018-10-07T12:23:19.679Z,41.10
2018-10-07T12:25:47.325Z,41.09
2018-10-07T12:28:15.440Z,41.53
2018-10-07T12:30:43.910Z,42.54
2018-10-07T12:33:11.789Z,43.39
2018-10-07T12:35:40.272Z,43.83
2018-10-07T12:38:08.205Z,43.77
2018-10-07T12:40:35.862Z,45.36
2018-10-07T12:43:03.501Z,45.61
2018-10-07T12:45:35.216Z,46.30
2018-10-07T12:48:02.829Z,46.90
2018-10-07T12:50:30.468Z,46.99
2018-10-07T12:52:59.962Z,47.39
2018-10-07T12:55:27.639Z,48.03
2018-10-07T12:57:58.776Z,48.70
2018-10-07T13:00:28.005Z,48.27
2018-10-07T13:02:56.296Z,48.85
2018-10-07T13:05:24.996Z,48.62
2018-10-07T13:07:54.013Z,49.08
2018-10-07T13:10:21.653Z,48.45
2018-10-07T13:12:49.302Z,49.10
2018-10-07T13:15:19.240Z,48.64
2018-10-07T13:17:47.595Z,49.08
2018-10-07T13:20:16.441Z,48.87
2018-10-07T13:22:45.224Z,49.51
2018-10-07T13:25:13.418Z,48.37
2018-10-07T13:27:41.631Z,48.29
2018-10-07T13:30:09.728Z,48.59
2018-10-07T13:32:38.386Z,48.69
2018-10-07T13:35:05.987Z,48.22
2018-10-07T13:37:34.940Z,48.74
2018-10-07T13:40:03.645Z,48.96
2018-10-07T13:42:32.461Z,48.43
2018-10-07T13:45:00.698Z,47.90
2018-10-07T13:47:28.324Z,48.06
2018-10-07T13:49:57.505Z,48.11
2018-10-07T13:52:25.509Z,47.82
2018-10-07T13:54:53.685Z,47.16
2018-10-07T13:57:21.346Z,47.79
2018-10-07T13:59:54.434Z,47.62
2018-10-07T14:02:24.228Z,47.10
2018-10-07T14:04:52.225Z,46.99
2018-10-07T14:07:19.872Z,46.94
2018-10-07T14:09:47.580Z,47.29
2018-10-07T14:12:17.642Z,46.50
2018-10-07T14:14:45.306Z,46.82
2018-10-07T14:17:12.989Z,46.75
2018-10-07T14:19:42.804Z,45.86
2018-10-07T14:22:10.477Z,45.87
2018-10-07T14:24:38.160Z,45.48
2018-10-07T14:27:06.642Z,46.01
2018-10-07T14:29:34.417Z,45.92
2018-10-07T14:32:02.797Z,45.51
2018-10-07T14:34:30.512Z,45.57
2018-10-07T14:36:58.174Z,46.52
2018-10-07T14:39:26.210Z,45.89
2018-10-07T14:41:53.897Z,46.36
2018-10-07T14:44:21.524Z,46.71
2018-10-07T14:46:50.245Z,46.51
2018-10-07T14:49:19.169Z,46.94
2018-10-07T14:51:47.767Z,47.20
2018-10-07T14:54:15.672Z,46.66
2018-10-07T14:56:43.301Z,46.73
2018-10-07T14:59:12.636Z,46.81
2018-10-07T15:01:40.698Z,47.05
2018-10-07T15:04:08.324Z,46.99
2018-10-07T15:06:37.269Z,46.02
2018-10-07T15:09:07.346Z,45.98
2018-10-07T15:11:35.237Z,45.92
2018-10-07T15:14:02.894Z,46.01
2018-10-07T15:16:38.727Z,46.21
2018-10-07T15:19:06.424Z,45.68
2018-10-07T15:21:35.716Z,46.23
2018-10-07T15:24:04.329Z,46.16
2018-10-07T15:26:31.932Z,46.29
2018-10-07T15:28:59.898Z,46.90
2018-10-07T15:31:29.440Z,46.19
2018-10-07T15:33:57.120Z,46.76
2018-10-07T15:36:24.801Z,47.58
2018-10-07T15:38:53.861Z,47.29
2018-10-07T15:41:21.521Z,48.25
2018-10-07T15:43:49.178Z,47.78
2018-10-07T15:46:17.307Z,48.41
2018-10-07T15:48:45.893Z,48.78
2018-10-07T15:51:13.533Z,48.67
2018-10-07T15:53:42.182Z,49.42
2018-10-07T15:56:09.809Z,49.60
2018-10-07T15:58:37.470Z,50.46
2018-10-07T16:01:05.588Z,49.76
2018-10-07T16:03:33.844Z,49.81
2018-10-07T16:06:02.772Z,50.63
2018-10-07T16:08:31.560Z,50.75
2018-10-07T16:10:59.168Z,50.67
2018-10-07T16:13:26.772Z,50.52
2018-10-07T16:15:55.553Z,50.68
2018-10-07T16:18:24.883Z,50.58
2018-10-07T16:20:52.484Z,51.21
2018-10-07T16:23:21.313Z,50.81
2018-10-07T16:25:50.674Z,50.61
2018-10-07T16:28:18.272Z,51.17
2018-10-07T16:30:46.255Z,50.80
2018-10-07T16:33:14.901Z,51.00
2018-10-07T16:35:43.157Z,51.47
2018-10-07T16:38:14.739Z,51.21
2018-10-07T16:40:43.986Z,51.64
2018-10-07T16:43:12.215Z,52.11
2018-10-07T16:45:41.360Z,52.19
2018-10-07T16:48:10.429Z,52.11
2018-10-07T16:50:38.040Z,52.52
2018-10-07T16:53:06.707Z,52.11
2018-10-07T16:55:35.565Z,52.75
2018-10-07T16:58:03.263Z,52.63
2018-10-07T17:00:31.287Z,52.39
2018-10-07T17:02:58.884Z,52.57
2018-10-07T17:05:26.554Z,53.16
2018-10-07T17:07:54.728Z,53.41
2018-10-07T17:10:22.890Z,53.29
2018-10-07T17:12:51.634Z,53.21
2018-10-07T17:15:21.266Z,53.98
2018-10-07T17:17:49.465Z,54.14
2018-10-07T17:20:18.313Z,53.85
2018-10-07T17:22:47.244Z,53.89
2018-10-07T17:25:14.873Z,54.48
2018-10-07T17:27:42.549Z,54.91
2018-10-07T17:30:10.618Z,54.88
2018-10-07T17:32:39.665Z,55.18
2018-10-07T17:35:08.112Z,55.34
2018-10-07T17:37:37.741Z,55.03
2018-10-07T17:40:07.042Z,55.38
2018-10-07T17:42:34.666Z,55.04
2018-10-07T17:45:04.528Z,55.59
2018-10-07T17:47:33.128Z,55.26
2018-10-07T17:50:07.542Z,55.50
2018-10-07T17:52:41.321Z,55.96
2018-10-07T17:55:10.385Z,56.25
2018-10-07T17:57:39.501Z,56.31
2018-10-07T18:00:09.127Z,56.38
2018-10-07T18:02:36.808Z,56.43
2018-10-07T18:05:05.371Z,56.54
2018-10-07T18:07:33.341Z,56.25
2018-10-07T18:10:02.991Z,56.46
2018-10-07T18:12:31.676Z,55.86
2018-10-07T18:14:59.693Z,56.44
2018-10-07T18:17:27.341Z,56.17
2018-10-07T18:19:55.253Z,56.15
2018-10-07T18:22:24.465Z,56.39
2018-10-07T18:24:52.360Z,56.42
2018-10-07T18:27:19.967Z,56.22
2018-10-07T18:29:48.176Z,56.74
2018-10-07T18:32:16.681Z,56.76
2018-10-07T18:34:44.711Z,56.64
2018-10-07T18:37:16.510Z,56.68
2018-10-07T18:39:45.918Z,57.17
2018-10-07T18:44:48.561Z,57.19
2018-10-07T18:47:16.288Z,57.42
2018-10-07T18:49:45.656Z,57.48
2018-10-07T18:52:13.848Z,57.13
2018-10-07T18:54:42.671Z,57.07
2018-10-07T18:57:10.505Z,57.51
2018-10-07T18:59:38.450Z,57.51
2018-10-07T19:02:06.685Z,58.06
2018-10-07T19:04:34.282Z,57.77
2018-10-07T19:07:02.278Z,58.08
2018-10-07T19:09:30.976Z,58.24
2018-10-07T19:11:59.196Z,58.43
2018-10-07T19:14:28.849Z,58.52
2018-10-07T19:16:56.478Z,58.96
2018-10-07T19:19:24.641Z,58.62
2018-10-07T19:21:53.762Z,58.83
2018-10-07T19:24:21.370Z,59.17
2018-10-07T19:26:50.257Z,59.00
2018-10-07T19:29:18.928Z,59.09
2018-10-07T19:31:47.123Z,59.74
2018-10-07T19:34:14.820Z,59.10
2018-10-07T19:36:45.406Z,59.77
2018-10-07T19:39:13.366Z,60.00
2018-10-07T19:41:42.024Z,60.04
2018-10-07T19:44:11.689Z,60.23
2018-10-07T19:46:39.369Z,59.77
2018-10-07T19:49:06.997Z,59.93
2018-10-07T19:51:35.729Z,60.02
2018-10-07T19:54:03.416Z,60.38
2018-10-07T19:56:32.564Z,60.29
2018-10-07T19:59:02.070Z,60.61
2018-10-07T20:01:29.723Z,61.05
2018-10-07T20:04:00.023Z,60.32
2018-10-07T20:06:28.135Z,61.14
2018-10-07T20:08:57.290Z,61.05
2018-10-07T20:11:24.888Z,60.94
2018-10-07T20:13:53.763Z,60.95
2018-10-07T20:16:22.377Z,60.94
2018-10-07T20:18:50.748Z,60.41
2018-10-07T20:21:20.699Z,60.45
2018-10-07T20:23:48.409Z,60.70
2018-10-07T20:26:17.456Z,60.94
2018-10-07T20:28:47.926Z,60.58
2018-10-07T20:31:15.602Z,60.92
2018-10-07T20:33:43.290Z,61.35
2018-10-07T20:38:53.170Z,61.63
2018-10-07T20:41:21.074Z,61.65
2018-10-07T20:43:48.691Z,61.63
2018-10-07T20:46:16.344Z,61.59
2018-10-07T20:48:44.486Z,61.91
2018-10-07T20:51:12.141Z,61.51
2018-10-07T20:53:39.812Z,61.45
2018-10-07T20:56:08.820Z,60.91
2018-10-07T20:58:36.547Z,61.39
2018-10-07T21:01:04.324Z,61.19
2018-10-07T21:06:14.961Z,60.82
2018-10-07T21:08:43.805Z,61.26
2018-10-07T21:11:11.445Z,61.18
2018-10-07T21:13:39.486Z,61.09
2018-10-07T21:16:07.637Z,60.99
2018-10-07T21:18:35.260Z,61.54
2018-10-07T21:21:02.924Z,61.91
2018-10-07T21:26:05.617Z,61.77
2018-10-07T21:28:33.529Z,61.41
2018-10-07T21:31:01.234Z,61.99
2018-10-07T21:33:30.061Z,62.12
2018-10-07T21:35:59.354Z,62.34
2018-10-07T21:38:27.925Z,62.47
2018-10-07T21:40:55.902Z,63.19
2018-10-07T21:43:23.682Z,63.06
2018-10-07T21:45:51.969Z,63.15
2018-10-07T21:48:21.544Z,63.56
2018-10-07T21:50:49.250Z,63.61
2018-10-07T21:53:18.617Z,63.78
2018-10-07T21:55:46.590Z,63.61
2018-10-07T21:58:15.046Z,63.41
2018-10-07T22:00:42.717Z,62.90
2018-10-07T22:03:11.472Z,63.33
2018-10-07T22:05:39.167Z,63.08
2018-10-07T22:08:06.809Z,62.82
2018-10-07T22:10:37.748Z,63.10
2018-10-07T22:13:05.389Z,63.36
2018-10-07T22:15:33.520Z,63.34
2018-10-07T22:18:01.462Z,63.37
2018-10-07T22:20:29.108Z,63.27
2018-10-07T22:22:56.761Z,63.50
2018-10-07T22:25:24.852Z,63.48
2018-10-07T22:27:52.697Z,63.98
2018-10-07T22:30:20.328Z,64.02
2018-10-07T22:32:48.224Z,64.19
2018-10-07T22:35:16.647Z,64.35
2018-10-07T22:37:44.336Z,64.03
2018-10-07T22:40:12.250Z,64.23
2018-10-07T22:42:40.840Z,63.76
2018-10-07T22:45:09.204Z,63.76
2018-10-07T22:47:38.906Z,63.64
2018-10-07T22:50:06.517Z,63.92
2018-10-07T22:52:34.189Z,63.88
2018-10-07T22:55:02.818Z,64.29
2018-10-07T22:57:30.786Z,64.15
2018-10-07T22:59:58.392Z,64.54
2018-10-07T23:02:27.676Z,65.08
2018-10-07T23:04:55.649Z,64.76
2018-10-07T23:07:23.448Z,64.41
2018-10-07T23:09:53.094Z,64.60
2018-10-07T23:12:21.133Z,65.03
2018-10-07T23:14:48.817Z,64.92
2018-10-07T23:17:17.224Z,64.67
2018-10-07T23:19:44.913Z,64.70
2018-10-07T23:22:13.909Z,64.65
2018-10-07T23:24:41.562Z,64.85
2018-10-07T23:27:09.206Z,65.28
2018-10-07T23:29:37.161Z,64.84
2018-10-07T23:32:04.760Z,64.44
2018-10-07T23:34:32.638Z,64.98
2018-10-07T23:37:00.582Z,65.24
2018-10-07T23:39:28.783Z,64.95
2018-10-07T23:41:56.411Z,64.91
2018-10-07T23:44:24.066Z,64.91
2018-10-07T23:46:52.025Z,65.02
2018-10-07T23:49:19.660Z,65.21
2018-10-07T23:51:47.955Z,64.71
2018-10-07T23:54:19.564Z,64.90
2018-10-07T23:56:47.168Z,65.17
2018-10-07T23:59:14.766Z,64.94
